Thunder radar more information blitzortung!


Radar de pluja more information rain snow radar


Visita la nostra xarxa de llocs de meteo:

Template documentation
and downloads

And another site



No particular awareness of the weather is required.    There are no Weather-warnings

Pagina Historial Weather Underground text

Diari Resum Novembre 15, 2017 Unitats:  Imperial    Mètric   Tant
« Previous Dia
SegĂźent Dia »
Diari Setmana Mensual Anual Personalitzada
  Maxima: Minima: Media:
Temperatura: 58.3 °F 34.7 °F 46.8 °F
Punt de rosada: 34.2 °F 18.7 °F 26.4 °F
Humitat: 59 % 32 % 45 %
Wind Speed: 4.6 mph 0 mph 1.4 mph
RĂ fegues de vent: 4.6 mph - -
Vent:- - SE
Pression baro: 30.1 in 30 in -
Precipitacions: 0 in    
Historical Graphs
 
 
Dades de taula per Novembre 15, 2017
Temps Temperatura Punt de rosada Pression baro Vent Wind Speed RĂ fegues de vent Humitat Rainfall Rate (Hourly)
00:02 39.7 °F 19.6 °F 30.1 in West 1.6 mph 1.6 mph 44 % 0 in
00:05 36.1 °F 19.2 °F 30.1 in WNW 1 mph 2 mph 50 % 0 in
00:07 39.6 °F 19.4 °F 30.1 in NW 1.4 mph 1.4 mph 44 % 0 in
00:12 39.7 °F 19.6 °F 30.1 in WNW 1.4 mph 1.4 mph 44 % 0 in
00:15 36 °F 19.6 °F 30.1 in Calm     51 % 0 in
00:17 39.7 °F 20.1 °F 30.1 in Calm     45 % 0 in
00:22 39.6 °F 19.9 °F 30.1 in Calm     45 % 0 in
00:25 35.6 °F 19.2 °F 30.1 in WSW 1 mph 2 mph 51 % 0 in
00:27 39.6 °F 20.5 °F 30.1 in Calm     46 % 0 in
00:32 39.6 °F 20.5 °F 30.1 in NW 1.2 mph 1.2 mph 46 % 0 in
00:35 35.8 °F 19.4 °F 30.1 in Calm   1 mph 51 % 0 in
00:37 39.4 °F 20.3 °F 30.1 in Calm     46 % 0 in
00:42 39.2 °F 20.1 °F 30.1 in WSW 1.2 mph 1.4 mph 46 % 0 in
00:45 35.6 °F 19.2 °F 30.1 in WNW 1 mph 2 mph 51 % 0 in
00:47 39 °F 19.9 °F 30.1 in WSW 1.2 mph   46 % 0 in
00:52 39 °F 20.5 °F 30.1 in WSW 1.2 mph   47 % 0 in
00:55 35.2 °F 18.9 °F 30.1 in Calm   1 mph 51 % 0 in
01:05 35.1 °F 18.7 °F 30.1 in Calm   3 mph 51 % 0 in
01:15 34.9 °F 19 °F 30.1 in Calm   4 mph 52 % 0 in
01:25 34.7 °F 18.9 °F 30.1 in Calm   2 mph 52 % 0 in
01:35 34.7 °F 18.9 °F 30.1 in North 1 mph 2 mph 52 % 0 in
01:45 35.1 °F 19.2 °F 30.1 in North 1 mph 3 mph 52 % 0 in
01:55 35.2 °F 19.4 °F 30.1 in NNE 1 mph 2 mph 52 % 0 in
02:05 36 °F 19.9 °F 30.1 in North 2 mph 3 mph 52 % 0 in
02:15 36.5 °F 20.5 °F 30.1 in WNW 1 mph 1 mph 52 % 0 in
02:25 37.6 °F 21.9 °F 30.1 in Calm   1 mph 53 % 0 in
02:35 38.5 °F 22.5 °F 30.1 in Calm   2 mph 52 % 0 in
02:45 38.5 °F 22.5 °F 30.1 in West 1 mph 2 mph 52 % 0 in
02:55 39 °F 22.8 °F 30.1 in Calm   3 mph 52 % 0 in
03:05 40.5 °F 24.3 °F 30.1 in SW 1 mph 2 mph 52 % 0 in
03:15 41.9 °F 25.5 °F 30.1 in SSW 1 mph 3 mph 52 % 0 in
03:25 42.1 °F 25.2 °F 30.1 in NE 1 mph 2 mph 51 % 0 in
03:35 42.8 °F 25.9 °F 30.1 in NE 1 mph 3 mph 51 % 0 in
03:45 43.2 °F 26.2 °F 30.1 in NE 1 mph 4 mph 51 % 0 in
09:51 43.7 °F 26.8 °F 30.1 in ENE 2.6 mph 2.6 mph 51 % 0 in
09:52 43.7 °F 26.8 °F 30.1 in ENE 3.1 mph 3.1 mph 51 % 0 in
09:53 43.7 °F 26.8 °F 30.1 in NE 4.6 mph 4.6 mph 51 % 0 in
09:58 43.5 °F 26.6 °F 30.1 in WNW 3.3 mph 3.3 mph 51 % 0 in
10:03 44.1 °F 26.6 °F 30.1 in NNE 3.8 mph 3.8 mph 50 % 0 in
10:04 44.2 °F 26.8 °F 30.1 in NNE 3.5 mph 3.5 mph 50 % 0 in
10:09 44.6 °F 27.1 °F 30.1 in NE 2.6 mph 2.6 mph 50 % 0 in
10:14 44.4 °F 27 °F 30.1 in NNE 2.3 mph 2.3 mph 50 % 0 in
10:19 44.8 °F 27.3 °F 30.1 in NNE 2.4 mph 2.4 mph 50 % 0 in
10:24 45.3 °F 27.9 °F 30.1 in NNE 2.3 mph 2.4 mph 50 % 0 in
10:29 45.7 °F 28 °F 30.1 in NE 3.5 mph 3.5 mph 50 % 0 in
10:34 46.2 °F 28.6 °F 30.1 in ENE 2.2 mph   50 % 0 in
10:39 46.6 °F 28.9 °F 30.1 in NE 2.3 mph 2.3 mph 50 % 0 in
10:44 47.3 °F 29.7 °F 30.1 in NNE 2.4 mph 2.4 mph 50 % 0 in
10:47 47.1 °F 29.5 °F 30.1 in WSW 2.4 mph 2.4 mph 50 % 0 in
10:52 47.3 °F 29.1 °F 30.1 in NNE 3.5 mph 3.5 mph 49 % 0 in
10:57 47.1 °F 28.9 °F 30.1 in ENE 3.5 mph 3.5 mph 49 % 0 in
11:02 46.9 °F 28.8 °F 30.1 in NW 2.4 mph 2.4 mph 49 % 0 in
11:07 47.7 °F 29.5 °F 30.1 in NNE 3.5 mph 3.5 mph 49 % 0 in
11:12 47.5 °F 28.8 °F 30.1 in ENE 4.6 mph 4.6 mph 48 % 0 in
11:17 47.8 °F 29.7 °F 30.1 in East 3.5 mph 3.5 mph 49 % 0 in
11:22 48.6 °F 30.2 °F 30.1 in North 2.3 mph   49 % 0 in
11:27 48.7 °F 29.8 °F 30.1 in NE 4.6 mph 4.6 mph 48 % 0 in
11:32 49.1 °F 30.2 °F 30.1 in NE 3.6 mph 3.6 mph 48 % 0 in
11:35 55 °F 27.1 °F 30 in South 1 mph 2 mph 34 % 0 in
11:37 49.3 °F 30.4 °F 30.1 in ENE 2.4 mph 2.4 mph 48 % 0 in
11:42 49.5 °F 30.6 °F 30.1 in ENE 3.5 mph 3.5 mph 48 % 0 in
11:45 54.5 °F 26.1 °F 30.1 in Calm   2 mph 33 % 0 in
11:47 49.6 °F 30.7 °F 30.1 in East 4.6 mph 4.6 mph 48 % 0 in
11:52 49.8 °F 30.4 °F 30.1 in ESE 3.5 mph 3.5 mph 47 % 0 in
11:55 53.8 °F 26.1 °F 30.1 in Calm   1 mph 34 % 0 in
11:57 50.2 °F 30.7 °F 30.1 in NE 4.6 mph 4.6 mph 47 % 0 in
12:02 50.4 °F 30.9 °F 30.1 in NNE 3.5 mph 3.5 mph 47 % 0 in
12:05 53.1 °F 25.3 °F 30.1 in WSW 1 mph 1 mph 34 % 0 in
12:07 50.5 °F 30.9 °F 30.1 in North 3.8 mph 3.8 mph 47 % 0 in
12:12 51.1 °F 31.5 °F 30.1 in WNW 2.3 mph 2.3 mph 47 % 0 in
12:17 51.4 °F 31.3 °F 30.1 in East 2.3 mph 2.3 mph 46 % 0 in
12:22 51.6 °F 32 °F 30.1 in NNE 2.3 mph 2.3 mph 47 % 0 in
12:27 52.2 °F 32 °F 30.1 in NNW 2.3 mph 2.3 mph 46 % 0 in
12:32 52.7 °F 32.5 °F 30.1 in ENE 2.6 mph 2.6 mph 46 % 0 in
12:37 52.2 °F 31.5 °F 30.1 in ESE 2.3 mph 2.3 mph 45 % 0 in
12:47 53.1 °F 32.7 °F 30.1 in NE 3.5 mph 3.5 mph 46 % 0 in
12:52 53.1 °F 32.4 °F 30.1 in SSE 2.6 mph 2.6 mph 45 % 0 in
12:57 53.6 °F 32.7 °F 30.1 in NW 2.3 mph 2.3 mph 45 % 0 in
13:02 54.1 °F 33.3 °F 30.1 in NNW 1.4 mph   45 % 0 in
13:07 54 °F 33.1 °F 30.1 in ENE 2.6 mph 2.6 mph 45 % 0 in
13:12 54.1 °F 32.7 °F 30.1 in NE 2.3 mph 2.3 mph 44 % 0 in
13:17 54.5 °F 33.1 °F 30.1 in NNE 2.4 mph 2.4 mph 44 % 0 in
13:22 54.9 °F 33.3 °F 30.1 in ENE 2.4 mph 2.4 mph 44 % 0 in
13:32 55.4 °F 33.8 °F 30.1 in East 2.3 mph 2.3 mph 44 % 0 in
13:37 55.8 °F 34.2 °F 30.1 in ENE 2.3 mph 2.3 mph 44 % 0 in
13:42 55.4 °F 33.3 °F 30.1 in East 2.4 mph 2.4 mph 43 % 0 in
13:47 55.4 °F 33.3 °F 30.1 in East 2.4 mph 2.4 mph 43 % 0 in
13:52 55.4 °F 33.3 °F 30.1 in NE 2.4 mph 2.6 mph 43 % 0 in
13:57 55.8 °F 33.6 °F 30.1 in ENE 2.3 mph 2.3 mph 43 % 0 in
14:02 55.9 °F 33.6 °F 30.1 in NE 2.4 mph 2.4 mph 43 % 0 in
14:07 56.1 °F 33.3 °F 30.1 in ENE 2.3 mph 2.3 mph 42 % 0 in
14:12 55.9 °F 32.5 °F 30.1 in SE 3.6 mph 3.6 mph 41 % 0 in
14:17 56.3 °F 32.9 °F 30.1 in East 3.5 mph 3.5 mph 41 % 0 in
14:22 56.3 °F 32.4 °F 30.1 in ENE 3.5 mph 3.5 mph 40 % 0 in
14:27 56.3 °F 32.4 °F 30.1 in ESE 2.3 mph 2.3 mph 40 % 0 in
14:32 56.7 °F 32 °F 30.1 in ESE 3.5 mph 3.5 mph 39 % 0 in
14:37 56.8 °F 32.2 °F 30.1 in NNE 1.2 mph   39 % 0 in
14:42 57.2 °F 32.4 °F 30.1 in NNW 1.2 mph 1.2 mph 39 % 0 in
14:47 57.2 °F 31.1 °F 30.1 in ESE 3.5 mph 3.5 mph 37 % 0 in
14:52 57 °F 30.4 °F 30 in ESE 3.5 mph 3.5 mph 36 % 0 in
14:57 57.2 °F 30.6 °F 30 in NNE 2.3 mph 2.3 mph 36 % 0 in
15:02 57.4 °F 30.6 °F 30 in NNE 1.6 mph 1.6 mph 36 % 0 in
15:07 57.6 °F 30.7 °F 30 in East 2.3 mph 2.3 mph 36 % 0 in
15:12 57.6 °F 30.7 °F 30 in ENE 2.3 mph 2.3 mph 36 % 0 in
15:17 57.9 °F 31.1 °F 30 in ENE 1.2 mph 1.2 mph 36 % 0 in
15:22 58.1 °F 31.3 °F 30 in NNE 1.2 mph   36 % 0 in
15:27 57.9 °F 29.7 °F 30 in South 3.5 mph 3.5 mph 34 % 0 in
15:32 57.9 °F 29.7 °F 30 in ENE 2.6 mph 2.6 mph 34 % 0 in
15:37 57.9 °F 29.7 °F 30.1 in East 3.5 mph 3.5 mph 34 % 0 in
15:42 58.1 °F 29.8 °F 30.1 in NNE 1.2 mph 1.2 mph 34 % 0 in
15:47 58.3 °F 30 °F 30.1 in ENE 2.3 mph   34 % 0 in
15:52 58.1 °F 29.1 °F 30 in ENE 1.2 mph   33 % 0 in
15:57 58.1 °F 29.1 °F 30 in ENE 2.3 mph 2.3 mph 33 % 0 in
16:02 57.9 °F 28.9 °F 30 in East 2.3 mph 2.3 mph 33 % 0 in
16:07 58.1 °F 28.4 °F 30 in East 1.2 mph 1.4 mph 32 % 0 in
16:12 58.1 °F 29.1 °F 30 in ENE 2.3 mph 2.3 mph 33 % 0 in
16:17 58.1 °F 29.1 °F 30 in East 2.3 mph 2.3 mph 33 % 0 in
16:22 58.3 °F 28.6 °F 30 in South 2.3 mph 2.3 mph 32 % 0 in
16:27 58.3 °F 28.6 °F 30 in SE 2.3 mph   32 % 0 in
16:32 57.9 °F 28.2 °F 30 in East 3.5 mph 3.5 mph 32 % 0 in
16:37 57.9 °F 28.2 °F 30 in Calm     32 % 0 in
16:42 57.7 °F 28 °F 30 in ESE 2.3 mph 2.3 mph 32 % 0 in
16:47 57.7 °F 28 °F 30 in East 2.3 mph 2.3 mph 32 % 0 in
16:52 57.4 °F 27.7 °F 30 in East 2.3 mph 2.3 mph 32 % 0 in
16:57 57.2 °F 27.7 °F 30 in ESE 2.3 mph 2.3 mph 32 % 0 in
17:02 57 °F 27.3 °F 30 in ESE 1.2 mph   32 % 0 in
17:07 56.8 °F 28 °F 30 in Calm     33 % 0 in
17:12 56.5 °F 27.7 °F 30 in Calm     33 % 0 in
17:17 56.1 °F 27.3 °F 30 in Calm     33 % 0 in
18:08 52.7 °F 25.2 °F 30.1 in WSW 1.2 mph 1.2 mph 34 % 0 in
18:13 52.3 °F 24.8 °F 30.1 in NNE 1.2 mph 1.2 mph 34 % 0 in
18:18 52.3 °F 24.8 °F 30.1 in NNE 1.2 mph   34 % 0 in
18:23 52 °F 24.4 °F 30.1 in NNE 2.3 mph 2.3 mph 34 % 0 in
18:25 41 °F 24.6 °F 30.1 in ESE 1 mph 2 mph 52 % 0 in
18:28 51.8 °F 25 °F 30.1 in Calm     35 % 0 in
18:33 51.6 °F 24.8 °F 30.1 in NNE 1.2 mph 1.2 mph 35 % 0 in
18:35 40.8 °F 24.4 °F 30.1 in Calm   1 mph 52 % 0 in
18:38 51.3 °F 24.4 °F 30.1 in Calm     35 % 0 in
18:43 50.9 °F 24.3 °F 30.1 in NNE 1.4 mph   35 % 0 in
18:45 40.5 °F 24.6 °F 30.1 in Calm     53 % 0 in
18:48 50.9 °F 24.3 °F 30.1 in NNE 1.4 mph 1.4 mph 35 % 0 in
18:53 50.7 °F 24.6 °F 30.1 in NE 1.4 mph   36 % 0 in
18:55 40.3 °F 24.4 °F 30.1 in Calm     53 % 0 in
18:58 50.4 °F 24.4 °F 30.1 in NE 1.2 mph 1.2 mph 36 % 0 in
19:03 50 °F 24.6 °F 30.1 in NNE 1.2 mph 1.2 mph 37 % 0 in
19:05 40.5 °F 24.6 °F 30.1 in SW 1 mph 2 mph 53 % 0 in
19:08 49.8 °F 24.6 °F 30.1 in North 1.2 mph   37 % 0 in
19:13 49.6 °F 24.4 °F 30.1 in Calm     37 % 0 in
19:15 40.5 °F 25.2 °F 30.1 in SW 1 mph 2 mph 54 % 0 in
19:18 49.5 °F 25 °F 30 in Calm     38 % 0 in
19:19 49.5 °F 25 °F 30 in Calm     38 % 0 in
19:24 49.5 °F 25 °F 30 in Calm     38 % 0 in
19:25 40.6 °F 25.3 °F 30.1 in Calm   2 mph 54 % 0 in
19:29 49.3 °F 24.6 °F 30 in Calm     38 % 0 in
19:34 48.9 °F 24.4 °F 30 in Calm     38 % 0 in
19:35 40.5 °F 25.2 °F 30.1 in Calm     54 % 0 in
19:39 48.6 °F 24.6 °F 30 in Calm     39 % 0 in
19:45 40.6 °F 25.3 °F 30.1 in Calm     54 % 0 in
19:49 48.6 °F 25.3 °F 30.1 in ENE 1.2 mph 1.2 mph 40 % 0 in
19:54 48.2 °F 25 °F 30.1 in Calm     40 % 0 in
19:55 40.6 °F 25.7 °F 30.1 in Calm     55 % 0 in
19:59 47.8 °F 24.6 °F 30.1 in Calm     40 % 0 in
20:04 47.5 °F 25 °F 30.1 in Calm     41 % 0 in
20:05 40.3 °F 25.3 °F 30.1 in Calm   1 mph 55 % 0 in
20:09 47.3 °F 24.8 °F 30.1 in Calm     41 % 0 in
20:14 47.3 °F 24.8 °F 30.1 in Calm     41 % 0 in
20:15 40.3 °F 25.3 °F 30.1 in Calm     55 % 0 in
20:19 46.9 °F 25 °F 30.1 in Calm     42 % 0 in
20:25 40.1 °F 25.2 °F 30.1 in Calm     55 % 0 in
20:29 46.2 °F 24.4 °F 30.1 in West 1.2 mph 1.4 mph 42 % 0 in
20:34 46 °F 24.8 °F 30.1 in Calm     43 % 0 in
20:35 40.1 °F 25.2 °F 30.1 in Calm   2 mph 55 % 0 in
20:39 46 °F 24.8 °F 30.1 in Calm     43 % 0 in
20:44 45.9 °F 24.6 °F 30.1 in NE 2.3 mph 2.3 mph 43 % 0 in
20:45 39.9 °F 25.5 °F 30.1 in Calm   1 mph 56 % 0 in
20:49 45.5 °F 24.3 °F 30.1 in NNW 1.2 mph 1.2 mph 43 % 0 in
20:54 45.5 °F 24.3 °F 30.1 in NNW 1.2 mph   43 % 0 in
20:55 40.3 °F 25.3 °F 30.1 in Calm   2 mph 55 % 0 in
20:59 45.5 °F 24.8 °F 30.1 in Calm     44 % 0 in
21:04 45.7 °F 25 °F 30.1 in NE 1.2 mph 1.2 mph 44 % 0 in
21:05 40.3 °F 25.9 °F 30.1 in Calm     56 % 0 in
21:09 45.5 °F 24.8 °F 30.1 in Calm     44 % 0 in
21:14 45.1 °F 25 °F 30.1 in NE 1.2 mph 1.4 mph 45 % 0 in
21:15 40.1 °F 25.5 °F 30.1 in NNW 1 mph 1 mph 56 % 0 in
21:19 44.8 °F 24.6 °F 30.1 in Calm     45 % 0 in
21:24 44.6 °F 24.4 °F 30.1 in Calm     45 % 0 in
21:25 39.9 °F 25.5 °F 30.1 in Calm     56 % 0 in
21:29 44.4 °F 24.4 °F 30.1 in Calm     45 % 0 in
21:34 44.1 °F 24.6 °F 30.1 in Calm     46 % 0 in
21:35 39.9 °F 25.5 °F 30.1 in Calm     56 % 0 in
21:39 43.9 °F 24.4 °F 30.1 in Calm     46 % 0 in
21:44 43.9 °F 24.4 °F 30.1 in NNE 1.2 mph 1.2 mph 46 % 0 in
21:45 39.9 °F 25.5 °F 30.1 in NNW 1 mph 2 mph 56 % 0 in
21:54 43.7 °F 24.8 °F 30.1 in SE 1.4 mph   47 % 0 in
21:55 39.7 °F 25.3 °F 30.1 in Calm   2 mph 56 % 0 in
21:59 43.7 °F 24.8 °F 30.1 in Calm     47 % 0 in
22:04 43.5 °F 24.6 °F 30.1 in SW 2 mph 2 mph 47 % 0 in
22:05 39.4 °F 25.3 °F 30.1 in Calm   2 mph 57 % 0 in
22:09 43.2 °F 24.3 °F 30.1 in SW 1.4 mph 1.4 mph 47 % 0 in
22:14 42.8 °F 23.9 °F 30.1 in SW 2.3 mph 2.3 mph 47 % 0 in
22:15 39.4 °F 25.3 °F 30.1 in NW 1 mph 2 mph 57 % 0 in
22:19 42.6 °F 23.7 °F 30.1 in WSW 2.3 mph 2.3 mph 47 % 0 in
22:24 42.8 °F 24.4 °F 30.1 in WSW 1.6 mph 1.6 mph 48 % 0 in
22:25 39 °F 25.2 °F 30.1 in Calm   2 mph 57 % 0 in
22:29 42.8 °F 24.4 °F 30.1 in WSW 2.3 mph 2.3 mph 48 % 0 in
22:34 42.8 °F 24.4 °F 30.1 in WSW 2.3 mph 2.3 mph 48 % 0 in
22:35 38.5 °F 25 °F 30.1 in Calm   1 mph 58 % 0 in
22:39 42.6 °F 24.8 °F 30.1 in WSW 1.4 mph   49 % 0 in
22:44 42.4 °F 24.6 °F 30.1 in WSW 1.2 mph 1.2 mph 49 % 0 in
22:45 38.5 °F 24.6 °F 30.1 in Calm   2 mph 57 % 0 in
22:49 42.4 °F 24.6 °F 30.1 in Calm     49 % 0 in
22:54 42.3 °F 25 °F 30.1 in Calm     50 % 0 in
22:59 42.1 °F 24.8 °F 30.1 in Calm     50 % 0 in
23:04 42.3 °F 25 °F 30.1 in Calm     50 % 0 in
23:05 38.5 °F 25 °F 30.1 in Calm   1 mph 58 % 0 in
23:09 42.1 °F 24.8 °F 30.1 in Calm     50 % 0 in
23:14 42.1 °F 24.8 °F 30.1 in Calm     50 % 0 in
23:15 38.5 °F 25 °F 30.1 in Calm   1 mph 58 % 0 in
23:19 42.1 °F 24.8 °F 30.1 in Calm     50 % 0 in
23:24 42.1 °F 25.2 °F 30.1 in Calm     51 % 0 in
23:25 38.3 °F 25.2 °F 30.1 in Calm     59 % 0 in
23:29 41.9 °F 25.2 °F 30.1 in Calm     51 % 0 in
23:34 42.3 °F 25.3 °F 30.1 in Calm     51 % 0 in
23:35 38.1 °F 25 °F 30.1 in Calm     59 % 0 in
23:39 42.1 °F 25.2 °F 30.1 in WSW 1.4 mph 1.4 mph 51 % 0 in
23:44 41.7 °F 25.3 °F 30.1 in ENE 1.2 mph 1.2 mph 52 % 0 in
23:45 37.8 °F 24.6 °F 30.1 in Calm     59 % 0 in
23:49 41.7 °F 25.3 °F 30.1 in Calm     52 % 0 in
23:54 41.5 °F 25.2 °F 30.1 in Calm     52 % 0 in
23:55 37.6 °F 24.4 °F 30.1 in NW 1 mph 2 mph 59 % 0 in
23:59 41.5 °F 25.2 °F 30.1 in ENE 2.3 mph 2.3 mph 52 % 0 in
Meteo Sesrovires
Elogis d' Weather Underground - 3.75 mb

Guio original per  Jim McMurry - jmcmurry@mwt.net Adaptat per a la plantilla per  Wim van der Kuil - Leuven-Template.eu

Trobareu la nostra informacio del temps tambe a:

Weather Underground

AWEKAS